Bellview, New Mexico
Current Conditions -  °F | °C
As of 3:55 AM on Wednesday 22 Oct 2014 (Local Time) from KCVN Reporting Station
Overcast Overcast  
Wind Chill: 57°   Ceiling: 3800
Heat Index: 57°   Visibility: 10mi
Dew Point: 54°   Wind: 6mph
Humidity: 88%   Direction: 230°SW
Pressure: 30.13"   Gusts: NA
Location:  34.8066°N, 103.126°W
Report Text: KCVN 220955Z AUTO 23005KT 10SM FEW029 BKN038 OVC044 14/12 A3013 RMK AO1
Loading
Personal Weather Stations






























Interactive Weather Map
Tropical Storm Tracking
New forecast layout! Learn more

10-Day Weather Forecast

Advertisements
Track Severe Weather on mobile